Time;durP1;ratioP1;P1;durP2;ratioP2;P2;SDS_P1;SDS_P2;PMS_P1;PMS_P2;Temp;Humidity;BMP_temperature;BMP_pressure;BME280_temperature;BME280_humidity;BME280_pressure;Samples;Min_cycle;Max_cycle;Signal;HPM_P1;HPM_P2
2023/05/08 00:00:11;;;;;;;20.90;18.40;;;;;;;;;;5057647;28;20218;-61
2023/05/08 00:02:38;;;;;;;21.05;17.88;;;;;;;;;;5053637;28;20693;-61
2023/05/08 00:05:04;;;;;;;25.25;18.98;;;;;;;;;;5067580;28;20298;-61
2023/05/08 00:07:29;;;;;;;26.42;19.58;;;;;;;;;;5053559;28;20214;-61
2023/05/08 00:09:54;;;;;;;19.90;17.77;;;;;;;;;;5060796;28;20210;-61
2023/05/08 00:12:20;;;;;;;25.75;19.52;;;;;;;;;;5059825;28;20257;-61
2023/05/08 00:14:45;;;;;;;25.27;19.17;;;;;;;;;;5060168;28;20222;-61
2023/05/08 00:17:11;;;;;;;24.95;17.70;;;;;;;;;;5059615;28;20633;-61
2023/05/08 00:19:36;;;;;;;23.48;18.75;;;;;;;;;;5078674;28;20216;-61
2023/05/08 00:22:01;;;;;;;19.35;17.20;;;;;;;;;;5079111;28;20322;-61
2023/05/08 00:24:27;;;;;;;21.08;18.70;;;;;;;;;;5073797;28;20206;-61
2023/05/08 00:26:52;;;;;;;24.98;19.52;;;;;;;;;;5072306;28;20221;-61
2023/05/08 00:29:17;;;;;;;25.67;18.65;;;;;;;;;;5071517;28;20312;-61
2023/05/08 00:31:43;;;;;;;22.52;18.10;;;;;;;;;;5079048;28;20205;-61
2023/05/08 00:34:08;;;;;;;24.75;19.05;;;;;;;;;;5062360;28;20225;-61
2023/05/08 00:36:33;;;;;;;22.05;18.45;;;;;;;;;;5066857;28;20301;-61
2023/05/08 00:38:58;;;;;;;23.92;18.35;;;;;;;;;;5069725;28;20214;-61
2023/05/08 00:41:24;;;;;;;23.73;18.08;;;;;;;;;;5069326;28;20666;-61
2023/05/08 00:43:49;;;;;;;23.27;19.08;;;;;;;;;;5069170;28;20742;-60
2023/05/08 00:46:15;;;;;;;21.83;18.90;;;;;;;;;;5069281;28;20210;-61
2023/05/08 00:48:40;;;;;;;22.45;20.05;;;;;;;;;;5069958;28;20735;-61
2023/05/08 00:51:06;;;;;;;24.80;19.55;;;;;;;;;;5067096;28;20215;-61
2023/05/08 00:53:32;;;;;;;22.30;19.45;;;;;;;;;;5068712;28;20206;-60
2023/05/08 00:55:57;;;;;;;22.27;19.95;;;;;;;;;;5070008;28;20534;-61
2023/05/08 00:58:22;;;;;;;21.60;19.10;;;;;;;;;;5067201;28;20623;-60
2023/05/08 01:00:47;;;;;;;23.48;20.75;;;;;;;;;;5060574;28;20249;-61
2023/05/08 01:03:13;;;;;;;26.27;19.10;;;;;;;;;;5061613;28;20259;-61
2023/05/08 01:05:39;;;;;;;24.05;19.60;;;;;;;;;;5076573;28;20207;-61
2023/05/08 01:08:04;;;;;;;21.42;19.13;;;;;;;;;;5078449;28;20552;-61
2023/05/08 01:10:44;;;;;;;20.92;18.63;;;;;;;;;;5059402;28;20931;-61
2023/05/08 01:13:14;;;;;;;24.25;19.35;;;;;;;;;;5070675;28;20260;-61
2023/05/08 01:15:41;;;;;;;22.00;19.40;;;;;;;;;;5055839;28;20306;-61
2023/05/08 01:18:10;;;;;;;23.63;19.80;;;;;;;;;;5074253;28;20344;-61
2023/05/08 01:20:38;;;;;;;15.32;13.45;;;;;;;;;;5063514;28;20724;-61
2023/05/08 01:23:10;;;;;;;23.25;19.00;;;;;;;;;;5063088;28;20731;-61
2023/05/08 01:25:53;;;;;;;22.52;19.58;;;;;;;;;;5062620;28;20225;-61
2023/05/08 01:28:34;;;;;;;22.95;20.42;;;;;;;;;;5062649;28;20210;-61
2023/05/08 01:31:18;;;;;;;28.38;23.48;;;;;;;;;;5063306;28;20210;-61
2023/05/08 01:33:54;;;;;;;32.28;24.55;;;;;;;;;;5057996;28;20376;-61
2023/05/08 01:36:22;;;;;;;40.88;23.92;;;;;;;;;;5074081;28;20681;-61
2023/05/08 01:38:49;;;;;;;28.75;22.38;;;;;;;;;;5073088;28;20695;-60
2023/05/08 01:41:15;;;;;;;29.65;22.08;;;;;;;;;;5081041;28;20243;-60
2023/05/08 01:43:44;;;;;;;29.02;21.20;;;;;;;;;;5082849;28;20730;-61
2023/05/08 01:46:12;;;;;;;27.85;20.27;;;;;;;;;;5081845;28;20211;-61
2023/05/08 01:48:38;;;;;;;25.83;21.30;;;;;;;;;;5081645;28;20224;-61
2023/05/08 01:51:05;;;;;;;26.30;21.23;;;;;;;;;;5062844;28;20241;-61
2023/05/08 01:53:37;;;;;;;23.45;19.45;;;;;;;;;;5077448;28;20223;-60
2023/05/08 01:56:06;;;;;;;27.15;20.15;;;;;;;;;;5073896;28;20225;-61
2023/05/08 01:58:31;;;;;;;31.17;20.75;;;;;;;;;;5070115;28;20266;-60
2023/05/08 02:00:57;;;;;;;23.20;20.20;;;;;;;;;;5069864;28;20687;-61
2023/05/08 02:03:22;;;;;;;28.95;21.52;;;;;;;;;;5058724;28;20222;-61
2023/05/08 02:05:47;;;;;;;25.13;20.55;;;;;;;;;;5074799;28;20210;-61
2023/05/08 02:08:13;;;;;;;23.40;21.00;;;;;;;;;;5061445;28;20222;-60
2023/05/08 02:10:39;;;;;;;25.38;20.80;;;;;;;;;;5062910;28;20225;-60
2023/05/08 02:13:04;;;;;;;28.10;21.73;;;;;;;;;;5077039;28;20238;-61
2023/05/08 02:15:29;;;;;;;27.75;21.77;;;;;;;;;;5075884;28;20240;-61
2023/05/08 02:17:55;;;;;;;26.30;21.15;;;;;;;;;;5060746;28;20264;-61
2023/05/08 02:20:20;;;;;;;23.08;20.67;;;;;;;;;;5054552;28;20275;-60
2023/05/08 02:22:50;;;;;;;28.33;22.15;;;;;;;;;;5073565;28;20228;-60
2023/05/08 02:25:15;;;;;;;26.52;22.50;;;;;;;;;;5075621;28;20304;-60
2023/05/08 02:27:42;;;;;;;29.95;22.77;;;;;;;;;;5079902;28;20289;-61
2023/05/08 02:30:09;;;;;;;25.55;21.20;;;;;;;;;;5080428;28;20205;-61
2023/05/08 02:32:34;;;;;;;24.90;21.35;;;;;;;;;;5081048;28;20206;-61
2023/05/08 02:35:00;;;;;;;23.95;21.23;;;;;;;;;;5086449;28;20205;-60
2023/05/08 02:37:25;;;;;;;28.58;23.20;;;;;;;;;;5088494;28;20569;-61
2023/05/08 02:39:50;;;;;;;24.27;21.15;;;;;;;;;;5090739;28;20304;-61
2023/05/08 02:42:16;;;;;;;28.42;22.25;;;;;;;;;;5089485;28;20216;-61
2023/05/08 02:44:41;;;;;;;25.23;22.52;;;;;;;;;;5092075;28;20212;-61
2023/05/08 02:47:27;;;;;;;26.15;22.70;;;;;;;;;;5083285;28;20263;-61
2023/05/08 02:49:54;;;;;;;26.23;22.20;;;;;;;;;;5070736;28;20351;-60
2023/05/08 02:52:21;;;;;;;24.33;21.80;;;;;;;;;;5069782;28;20745;-61
2023/05/08 02:54:49;;;;;;;26.30;22.60;;;;;;;;;;5072165;28;20702;-61
2023/05/08 02:57:22;;;;;;;27.55;23.13;;;;;;;;;;5070367;28;20214;-61
2023/05/08 02:59:50;;;;;;;26.75;22.52;;;;;;;;;;5070272;28;20210;-61
2023/05/08 03:02:16;;;;;;;24.65;22.00;;;;;;;;;;5071198;28;20302;-61
2023/05/08 03:04:50;;;;;;;27.50;22.73;;;;;;;;;;5070703;28;20206;-60
2023/05/08 03:07:15;;;;;;;26.75;23.33;;;;;;;;;;5070939;28;20236;-61
2023/05/08 03:09:42;;;;;;;22.27;19.98;;;;;;;;;;5079980;28;20244;-61
2023/05/08 03:12:11;;;;;;;25.33;22.63;;;;;;;;;;5070712;28;20588;-61
2023/05/08 03:14:40;;;;;;;27.23;23.13;;;;;;;;;;5069859;28;20238;-61
2023/05/08 03:17:05;;;;;;;24.88;22.23;;;;;;;;;;5082159;28;20226;-61
2023/05/08 03:19:32;;;;;;;25.35;22.30;;;;;;;;;;5090258;28;20213;-61
2023/05/08 03:21:58;;;;;;;26.60;23.25;;;;;;;;;;5091388;28;20582;-60
2023/05/08 03:24:23;;;;;;;24.73;21.55;;;;;;;;;;5088688;28;20205;-60
2023/05/08 03:26:48;;;;;;;27.17;22.85;;;;;;;;;;5091139;28;20217;-61
2023/05/08 03:29:14;;;;;;;25.48;22.73;;;;;;;;;;5090644;28;20239;-61
2023/05/08 03:31:40;;;;;;;28.48;23.08;;;;;;;;;;5090385;28;20209;-61
2023/05/08 03:34:05;;;;;;;29.52;23.08;;;;;;;;;;5089626;28;20275;-61
2023/05/08 03:36:30;;;;;;;28.73;24.13;;;;;;;;;;5076342;28;20669;-60
2023/05/08 03:38:56;;;;;;;26.75;23.70;;;;;;;;;;5075341;28;20234;-61
2023/05/08 03:41:21;;;;;;;27.60;23.98;;;;;;;;;;5074609;28;20210;-61
2023/05/08 03:43:46;;;;;;;25.75;22.92;;;;;;;;;;5082597;28;20579;-61
2023/05/08 03:46:11;;;;;;;27.88;23.05;;;;;;;;;;5081177;28;20297;-61
2023/05/08 03:48:37;;;;;;;25.85;22.60;;;;;;;;;;5082197;28;20220;-61
2023/05/08 03:51:02;;;;;;;28.77;24.15;;;;;;;;;;5089064;28;20593;-60
2023/05/08 03:53:28;;;;;;;29.42;24.35;;;;;;;;;;5090227;28;20691;-61
2023/05/08 03:55:53;;;;;;;27.75;24.48;;;;;;;;;;5090426;28;20206;-61
2023/05/08 03:58:20;;;;;;;29.02;22.98;;;;;;;;;;5089052;28;20313;-61
2023/05/08 04:00:49;;;;;;;26.40;23.17;;;;;;;;;;5088625;28;20209;-61
2023/05/08 04:03:16;;;;;;;29.88;24.83;;;;;;;;;;5090360;28;20220;-61
2023/05/08 04:05:46;;;;;;;27.42;23.92;;;;;;;;;;5084479;28;20612;-61
2023/05/08 04:08:15;;;;;;;28.65;24.05;;;;;;;;;;5067974;28;20225;-61
2023/05/08 04:10:44;;;;;;;27.13;23.65;;;;;;;;;;5085052;28;20214;-61
2023/05/08 04:13:10;;;;;;;28.52;24.13;;;;;;;;;;5076791;28;20224;-61
2023/05/08 04:15:42;;;;;;;27.77;23.73;;;;;;;;;;5060606;28;20206;-61
2023/05/08 04:18:08;;;;;;;28.33;23.33;;;;;;;;;;5060579;28;20317;-61
2023/05/08 04:20:34;;;;;;;28.65;23.80;;;;;;;;;;5053885;28;20280;-61
2023/05/08 04:22:59;;;;;;;26.00;23.40;;;;;;;;;;5054768;28;20214;-61
2023/05/08 04:25:25;;;;;;;25.77;23.17;;;;;;;;;;5052653;28;20234;-60
2023/05/08 04:27:51;;;;;;;27.08;24.20;;;;;;;;;;5058563;28;20207;-61
2023/05/08 04:30:16;;;;;;;25.67;22.90;;;;;;;;;;5060167;28;20278;-61
2023/05/08 04:32:41;;;;;;;25.25;22.27;;;;;;;;;;5060168;28;20210;-60
2023/05/08 04:35:07;;;;;;;25.45;22.77;;;;;;;;;;5074591;28;20218;-61
2023/05/08 04:37:32;;;;;;;25.50;22.45;;;;;;;;;;5059889;28;20321;-61
2023/05/08 04:39:57;;;;;;;22.92;20.58;;;;;;;;;;5063403;28;20215;-60
2023/05/08 04:42:24;;;;;;;25.05;22.40;;;;;;;;;;5059535;28;20275;-60
2023/05/08 04:44:50;;;;;;;25.20;21.83;;;;;;;;;;5072016;28;20725;-61
2023/05/08 04:47:15;;;;;;;26.95;22.05;;;;;;;;;;5057320;28;20216;-61
2023/05/08 04:49:40;;;;;;;24.67;22.08;;;;;;;;;;5060236;28;20291;-61
2023/05/08 04:52:06;;;;;;;23.58;21.08;;;;;;;;;;5074680;28;20213;-61
2023/05/08 04:54:31;;;;;;;23.45;20.77;;;;;;;;;;5086894;28;20213;-60
2023/05/08 04:56:57;;;;;;;27.13;21.15;;;;;;;;;;5080564;28;20206;-61
2023/05/08 04:59:23;;;;;;;25.47;23.00;;;;;;;;;;5072715;28;20897;-61
2023/05/08 05:01:49;;;;;;;22.75;20.42;;;;;;;;;;5073666;28;20214;-61
2023/05/08 05:04:14;;;;;;;23.50;20.90;;;;;;;;;;5074659;28;20620;-62
2023/05/08 05:06:39;;;;;;;26.00;23.42;;;;;;;;;;5084409;28;20972;-61
2023/05/08 05:09:05;;;;;;;23.35;20.92;;;;;;;;;;5087038;28;20218;-62
2023/05/08 05:11:30;;;;;;;24.00;21.60;;;;;;;;;;5081292;28;20227;-62
2023/05/08 05:13:56;;;;;;;22.88;20.50;;;;;;;;;;5087448;28;20247;-62
2023/05/08 05:16:21;;;;;;;23.02;20.83;;;;;;;;;;5081502;28;20240;-61
2023/05/08 05:18:46;;;;;;;25.88;20.40;;;;;;;;;;5085622;28;20210;-62
2023/05/08 05:21:12;;;;;;;27.70;22.05;;;;;;;;;;5084462;28;20224;-62
2023/05/08 05:23:37;;;;;;;22.60;20.30;;;;;;;;;;5083990;28;20194;-61
2023/05/08 05:26:02;;;;;;;26.00;21.98;;;;;;;;;;5085636;28;20213;-61
2023/05/08 05:28:28;;;;;;;23.42;20.98;;;;;;;;;;5083570;28;20210;-62
2023/05/08 05:30:53;;;;;;;23.65;21.17;;;;;;;;;;5086408;28;20205;-61
2023/05/08 05:33:19;;;;;;;23.95;21.23;;;;;;;;;;5083073;28;20202;-61
2023/05/08 05:35:44;;;;;;;13.98;12.48;;;;;;;;;;5089265;28;20210;-60
2023/05/08 05:38:09;;;;;;;23.00;20.50;;;;;;;;;;5091884;28;20229;-62
2023/05/08 05:40:35;;;;;;;23.63;21.23;;;;;;;;;;5093481;28;20210;-61
2023/05/08 05:43:00;;;;;;;23.88;21.40;;;;;;;;;;5093209;28;20201;-62
2023/05/08 05:45:25;;;;;;;27.55;22.33;;;;;;;;;;5092263;28;20224;-62
2023/05/08 05:47:52;;;;;;;23.63;21.23;;;;;;;;;;5075237;28;20221;-62
2023/05/08 05:50:18;;;;;;;26.88;23.17;;;;;;;;;;5071164;28;20215;-62
2023/05/08 05:52:43;;;;;;;24.92;22.33;;;;;;;;;;5066315;28;20445;-61
2023/05/08 05:55:08;;;;;;;25.70;23.00;;;;;;;;;;5074642;28;20638;-61
2023/05/08 05:57:34;;;;;;;25.20;22.77;;;;;;;;;;5072597;28;20310;-62
2023/05/08 05:59:59;;;;;;;24.73;22.27;;;;;;;;;;5070367;28;20245;-62
2023/05/08 06:02:24;;;;;;;24.45;22.05;;;;;;;;;;5071082;28;20208;-62
2023/05/08 06:04:50;;;;;;;23.38;21.13;;;;;;;;;;5070521;28;20602;-61
2023/05/08 06:07:15;;;;;;;25.98;23.27;;;;;;;;;;5071087;28;20246;-62
2023/05/08 06:09:41;;;;;;;25.20;22.75;;;;;;;;;;5072428;28;20292;-62
2023/05/08 06:12:07;;;;;;;24.60;22.15;;;;;;;;;;5072799;28;20222;-61
2023/05/08 06:14:32;;;;;;;26.15;23.55;;;;;;;;;;5080223;28;20298;-62
2023/05/08 06:16:58;;;;;;;26.85;24.05;;;;;;;;;;5078449;28;20552;-62
2023/05/08 06:19:24;;;;;;;26.30;23.70;;;;;;;;;;5072013;28;20222;-61
2023/05/08 06:21:50;;;;;;;26.50;23.90;;;;;;;;;;5071646;28;20210;-62
2023/05/08 06:24:15;;;;;;;25.45;22.95;;;;;;;;;;5071727;28;20570;-62
2023/05/08 06:26:40;;;;;;;25.67;23.17;;;;;;;;;;5072031;28;20241;-61
2023/05/08 06:29:06;;;;;;;24.20;21.80;;;;;;;;;;5071245;28;20210;-61
2023/05/08 06:31:31;;;;;;;25.98;23.48;;;;;;;;;;5072430;28;20225;-61
2023/05/08 06:33:56;;;;;;;26.45;23.65;;;;;;;;;;5071106;28;20206;-61
2023/05/08 06:36:22;;;;;;;26.70;23.95;;;;;;;;;;5071622;28;20222;-61
2023/05/08 06:38:47;;;;;;;26.80;24.10;;;;;;;;;;5070497;28;20273;-62
2023/05/08 06:41:12;;;;;;;26.48;23.77;;;;;;;;;;5070746;28;20242;-61
2023/05/08 06:43:38;;;;;;;27.30;24.35;;;;;;;;;;5071993;28;20214;-61
2023/05/08 06:46:03;;;;;;;24.73;22.38;;;;;;;;;;5071391;28;20688;-62
2023/05/08 06:48:28;;;;;;;27.67;23.27;;;;;;;;;;5070964;28;20218;-61
2023/05/08 06:50:54;;;;;;;25.85;23.27;;;;;;;;;;5071839;28;20207;-61
2023/05/08 06:53:19;;;;;;;26.30;23.80;;;;;;;;;;5071121;28;20236;-61
2023/05/08 06:55:45;;;;;;;26.25;23.70;;;;;;;;;;5071069;28;20211;-62
2023/05/08 06:58:10;;;;;;;27.45;24.52;;;;;;;;;;5070946;28;20222;-61
2023/05/08 07:00:35;;;;;;;26.67;23.77;;;;;;;;;;5071696;28;20206;-61
2023/05/08 07:03:01;;;;;;;31.35;25.33;;;;;;;;;;5070043;28;20680;-61
2023/05/08 07:05:26;;;;;;;28.77;25.13;;;;;;;;;;5075216;28;20600;-61
2023/05/08 07:07:53;;;;;;;34.78;26.40;;;;;;;;;;5085265;28;20218;-62
2023/05/08 07:10:19;;;;;;;30.80;26.38;;;;;;;;;;5078704;28;20252;-62
2023/05/08 07:12:45;;;;;;;35.10;26.92;;;;;;;;;;5071344;28;20226;-62
2023/05/08 07:15:10;;;;;;;37.65;27.50;;;;;;;;;;5070746;28;20586;-62
2023/05/08 07:17:36;;;;;;;39.80;28.95;;;;;;;;;;5086790;28;20581;-63
2023/05/08 07:20:02;;;;;;;37.92;26.70;;;;;;;;;;5090873;28;20568;-62
2023/05/08 07:22:28;;;;;;;41.95;28.90;;;;;;;;;;5091010;28;20727;-63
2023/05/08 07:24:53;;;;;;;46.75;30.45;;;;;;;;;;5090598;28;20221;-62
2023/05/08 07:27:19;;;;;;;46.65;30.02;;;;;;;;;;5086966;28;20246;-62
2023/05/08 07:29:44;;;;;;;42.60;28.02;;;;;;;;;;5078959;28;20210;-63
2023/05/08 07:32:09;;;;;;;38.53;28.38;;;;;;;;;;5080591;28;20206;-64
2023/05/08 07:34:34;;;;;;;47.72;30.38;;;;;;;;;;5070913;28;20217;-62
2023/05/08 07:37:00;;;;;;;47.70;31.17;;;;;;;;;;5070544;28;20700;-63
2023/05/08 07:39:25;;;;;;;43.50;30.48;;;;;;;;;;5069934;28;20241;-62
2023/05/08 07:41:50;;;;;;;42.13;28.92;;;;;;;;;;5070813;28;20203;-62
2023/05/08 07:44:16;;;;;;;40.17;28.33;;;;;;;;;;5069363;28;20218;-63
2023/05/08 07:46:41;;;;;;;35.85;28.02;;;;;;;;;;5077145;28;20201;-62
2023/05/08 07:49:06;;;;;;;37.78;27.60;;;;;;;;;;5077992;28;20351;-62
2023/05/08 07:51:32;;;;;;;43.75;29.75;;;;;;;;;;5078932;28;20620;-63
2023/05/08 07:53:57;;;;;;;36.92;27.08;;;;;;;;;;5074480;28;20210;-62
2023/05/08 07:56:23;;;;;;;41.17;29.85;;;;;;;;;;5071770;28;20713;-63
2023/05/08 07:58:48;;;;;;;40.13;31.60;;;;;;;;;;5080809;28;20884;-61
2023/05/08 08:01:16;;;;;;;43.47;30.20;;;;;;;;;;5090196;28;20281;-61
2023/05/08 08:03:41;;;;;;;41.20;27.85;;;;;;;;;;5080011;28;20210;-62
2023/05/08 08:06:07;;;;;;;44.07;32.67;;;;;;;;;;5068342;28;20467;-62
2023/05/08 08:08:32;;;;;;;45.83;31.42;;;;;;;;;;5076148;28;20777;-62
2023/05/08 08:10:57;;;;;;;49.65;32.78;;;;;;;;;;5087540;28;20206;-65
2023/05/08 08:13:23;;;;;;;46.53;33.05;;;;;;;;;;5088545;28;20590;-67
2023/05/08 08:15:48;;;;;;;49.05;32.58;;;;;;;;;;5088723;28;20317;-64
2023/05/08 08:18:13;;;;;;;45.50;31.20;;;;;;;;;;5069849;28;20542;-65
2023/05/08 08:20:39;;;;;;;49.67;32.80;;;;;;;;;;5069226;28;20561;-65
2023/05/08 08:23:04;;;;;;;51.92;34.17;;;;;;;;;;5069617;28;20623;-67
2023/05/08 08:25:30;;;;;;;48.38;34.28;;;;;;;;;;5070298;28;20198;-65
2023/05/08 08:27:55;;;;;;;47.72;34.08;;;;;;;;;;5069434;28;20221;-64
2023/05/08 08:30:20;;;;;;;48.80;33.75;;;;;;;;;;5069681;28;20214;-65
2023/05/08 08:32:46;;;;;;;46.47;33.40;;;;;;;;;;5084934;28;20238;-66
2023/05/08 08:35:11;;;;;;;50.80;35.72;;;;;;;;;;5080167;28;20673;-65
2023/05/08 08:37:37;;;;;;;54.03;35.40;;;;;;;;;;5086883;28;20632;-67
2023/05/08 08:40:02;;;;;;;48.95;35.53;;;;;;;;;;5089475;28;20206;-70
2023/05/08 08:42:27;;;;;;;51.10;36.40;;;;;;;;;;5089604;28;20221;-67
2023/05/08 08:44:54;;;;;;;48.97;35.95;;;;;;;;;;5090160;28;20255;-66
2023/05/08 08:47:19;;;;;;;52.00;36.35;;;;;;;;;;5089315;28;20556;-67
2023/05/08 08:49:46;;;;;;;47.78;34.28;;;;;;;;;;5079311;28;20216;-67
2023/05/08 08:52:31;;;;;;;45.88;33.20;;;;;;;;;;5081635;28;20224;-66
2023/05/08 08:54:56;;;;;;;53.35;37.35;;;;;;;;;;5075894;28;20214;-68
2023/05/08 08:57:22;;;;;;;55.00;35.95;;;;;;;;;;5068051;28;20267;-67
2023/05/08 08:59:47;;;;;;;45.50;31.38;;;;;;;;;;5070018;28;20252;-67
2023/05/08 09:02:16;;;;;;;49.47;36.13;;;;;;;;;;5067178;28;20271;-67
2023/05/08 09:04:41;;;;;;;55.40;38.05;;;;;;;;;;5069976;28;20210;-66
2023/05/08 09:07:07;;;;;;;53.25;36.58;;;;;;;;;;5080488;28;20446;-67
2023/05/08 09:09:34;;;;;;;49.13;33.70;;;;;;;;;;5082504;28;20256;-67
2023/05/08 09:11:59;;;;;;;53.65;36.20;;;;;;;;;;5069637;28;20239;-66
2023/05/08 09:14:25;;;;;;;49.88;36.65;;;;;;;;;;5069511;28;20221;-67
2023/05/08 09:16:52;;;;;;;51.05;38.22;;;;;;;;;;5068816;28;20235;-66
2023/05/08 09:19:17;;;;;;;49.80;37.50;;;;;;;;;;5069265;28;20681;-66
2023/05/08 09:21:43;;;;;;;53.20;37.90;;;;;;;;;;5069280;28;20246;-66
2023/05/08 09:24:09;;;;;;;52.65;37.08;;;;;;;;;;5067269;28;20712;-65
2023/05/08 09:26:35;;;;;;;50.10;37.83;;;;;;;;;;5073014;28;20225;-67
2023/05/08 09:29:06;;;;;;;51.08;37.92;;;;;;;;;;5072925;28;20613;-65
2023/05/08 09:31:35;;;;;;;50.63;36.40;;;;;;;;;;5072439;28;20285;-67
2023/05/08 09:34:00;;;;;;;53.33;38.60;;;;;;;;;;5072893;28;20211;-63
2023/05/08 09:36:27;;;;;;;53.10;39.20;;;;;;;;;;5072807;28;20559;-68
2023/05/08 09:38:52;;;;;;;53.75;37.58;;;;;;;;;;5072409;28;20222;-65
2023/05/08 09:41:18;;;;;;;50.85;38.28;;;;;;;;;;5072546;28;20217;-67
2023/05/08 09:43:44;;;;;;;47.92;36.85;;;;;;;;;;5072305;28;20550;-66
2023/05/08 09:46:25;;;;;;;51.40;38.15;;;;;;;;;;5075175;28;20198;-66
2023/05/08 09:48:51;;;;;;;53.30;40.13;;;;;;;;;;5082104;28;20769;-66
2023/05/08 09:51:16;;;;;;;48.20;36.38;;;;;;;;;;5083721;28;20288;-67
2023/05/08 09:53:41;;;;;;;50.95;39.40;;;;;;;;;;5093060;28;20225;-65
2023/05/08 09:56:07;;;;;;;50.60;40.05;;;;;;;;;;5092528;28;20221;-64
2023/05/08 09:58:39;;;;;;;48.75;38.92;;;;;;;;;;5087456;28;20220;-64
2023/05/08 10:01:04;;;;;;;52.90;39.97;;;;;;;;;;5072334;28;20214;-64
2023/05/08 10:03:46;;;;;;;51.55;39.10;;;;;;;;;;5075018;28;20209;-66
2023/05/08 10:06:12;;;;;;;53.90;40.05;;;;;;;;;;5076645;28;20205;-64
2023/05/08 10:08:37;;;;;;;50.70;41.05;;;;;;;;;;5075220;28;20206;-64
2023/05/08 10:11:16;;;;;;;53.90;39.28;;;;;;;;;;5080072;28;20206;-64
2023/05/08 10:13:42;;;;;;;50.67;40.88;;;;;;;;;;5071950;28;20263;-66
2023/05/08 10:16:09;;;;;;;51.13;40.30;;;;;;;;;;5076222;28;20294;-66
2023/05/08 10:18:35;;;;;;;49.65;41.55;;;;;;;;;;5092216;28;20222;-65
2023/05/08 10:21:01;;;;;;;51.85;40.75;;;;;;;;;;5090506;28;20233;-65
2023/05/08 10:23:27;;;;;;;51.92;42.17;;;;;;;;;;5082747;28;20213;-65
2023/05/08 10:25:54;;;;;;;52.05;42.33;;;;;;;;;;5080310;28;20206;-65
2023/05/08 10:28:28;;;;;;;51.10;42.50;;;;;;;;;;5071759;28;20210;-65
2023/05/08 10:30:54;;;;;;;53.70;42.63;;;;;;;;;;5070662;28;20284;-65
2023/05/08 10:33:19;;;;;;;45.10;37.33;;;;;;;;;;5089484;28;20237;-65
2023/05/08 10:35:45;;;;;;;51.83;42.47;;;;;;;;;;5092003;28;20298;-66
2023/05/08 10:38:10;;;;;;;55.35;45.15;;;;;;;;;;5089345;28;20286;-65
2023/05/08 10:40:36;;;;;;;55.83;45.97;;;;;;;;;;5091499;28;20266;-65
2023/05/08 10:43:02;;;;;;;49.72;41.75;;;;;;;;;;5091686;28;20583;-64
2023/05/08 10:45:28;;;;;;;53.83;42.13;;;;;;;;;;5092208;28;20201;-65
2023/05/08 10:47:58;;;;;;;48.30;40.78;;;;;;;;;;5084665;28;20208;-66
2023/05/08 10:50:33;;;;;;;50.38;40.80;;;;;;;;;;5091171;28;20213;-65
2023/05/08 10:53:01;;;;;;;42.67;37.63;;;;;;;;;;5091805;28;20233;-65
2023/05/08 10:55:28;;;;;;;48.20;40.55;;;;;;;;;;5090822;28;20213;-66
2023/05/08 10:58:01;;;;;;;44.67;39.85;;;;;;;;;;5091775;28;20287;-66
2023/05/08 11:00:30;;;;;;;48.80;43.70;;;;;;;;;;5091651;28;20214;-65
2023/05/08 11:03:03;;;;;;;51.22;45.10;;;;;;;;;;5091162;28;20214;-66
2023/05/08 11:05:28;;;;;;;51.17;44.95;;;;;;;;;;5086992;28;20213;-64
2023/05/08 11:07:55;;;;;;;54.17;47.08;;;;;;;;;;5071163;28;20285;-64
2023/05/08 11:10:20;;;;;;;52.72;47.15;;;;;;;;;;5082320;28;20221;-63
2023/05/08 11:12:47;;;;;;;55.05;48.58;;;;;;;;;;5090098;28;20241;-64
2023/05/08 11:15:13;;;;;;;53.50;47.78;;;;;;;;;;5090653;28;20544;-65
2023/05/08 11:17:38;;;;;;;56.33;49.35;;;;;;;;;;5074613;28;20217;-64
2023/05/08 11:20:04;;;;;;;52.85;47.17;;;;;;;;;;5070379;28;20214;-63
2023/05/08 11:22:31;;;;;;;53.28;47.50;;;;;;;;;;5068958;28;20202;-64
2023/05/08 11:24:57;;;;;;;52.78;46.60;;;;;;;;;;5071109;28;20210;-65
2023/05/08 11:27:30;;;;;;;50.95;45.50;;;;;;;;;;5069355;28;20601;-64
2023/05/08 11:30:16;;;;;;;54.03;47.92;;;;;;;;;;5081066;28;20217;-64
2023/05/08 11:32:54;;;;;;;46.13;41.22;;;;;;;;;;5074163;28;20201;-65
2023/05/08 11:35:37;;;;;;;45.72;40.70;;;;;;;;;;5075496;28;20206;-64
2023/05/08 11:38:13;;;;;;;49.70;44.28;;;;;;;;;;5076330;28;20213;-63
2023/05/08 11:40:44;;;;;;;55.45;49.03;;;;;;;;;;5090797;28;20256;-65
2023/05/08 11:43:27;;;;;;;53.65;47.95;;;;;;;;;;5090370;28;20737;-64
2023/05/08 11:45:53;;;;;;;51.08;45.53;;;;;;;;;;5090655;28;20243;-65
2023/05/08 11:48:18;;;;;;;49.47;44.20;;;;;;;;;;5068791;28;20211;-65
2023/05/08 11:50:44;;;;;;;38.45;34.50;;;;;;;;;;5069318;28;20213;-65
2023/05/08 11:53:09;;;;;;;35.70;31.90;;;;;;;;;;5069004;28;20321;-63
2023/05/08 11:55:34;;;;;;;36.45;32.80;;;;;;;;;;5070501;28;20202;-64
2023/05/08 11:57:59;;;;;;;35.13;31.75;;;;;;;;;;5068408;28;20288;-64
2023/05/08 12:00:25;;;;;;;34.20;30.70;;;;;;;;;;5071635;28;20355;-64
2023/05/08 12:02:50;;;;;;;37.40;33.55;;;;;;;;;;5090772;28;20209;-64
2023/05/08 12:05:15;;;;;;;40.00;35.88;;;;;;;;;;5086765;28;20198;-64
2023/05/08 12:07:42;;;;;;;39.17;35.10;;;;;;;;;;5068596;28;20304;-64
2023/05/08 12:10:07;;;;;;;39.42;35.28;;;;;;;;;;5079738;28;20617;-64
2023/05/08 12:12:36;;;;;;;39.13;35.25;;;;;;;;;;5089906;28;20312;-64
2023/05/08 12:15:05;;;;;;;40.70;36.70;;;;;;;;;;5081841;28;20218;-64
2023/05/08 12:17:30;;;;;;;39.15;34.97;;;;;;;;;;5070326;28;20222;-65
2023/05/08 12:19:55;;;;;;;35.08;31.58;;;;;;;;;;5069221;28;20719;-64
2023/05/08 12:22:21;;;;;;;37.30;33.35;;;;;;;;;;5069803;28;20210;-64
2023/05/08 12:24:46;;;;;;;39.88;35.88;;;;;;;;;;5070108;28;20206;-64
2023/05/08 12:27:11;;;;;;;40.17;36.08;;;;;;;;;;5067908;28;20210;-65
2023/05/08 12:29:37;;;;;;;37.60;33.90;;;;;;;;;;5070480;28;20929;-64
2023/05/08 12:32:02;;;;;;;37.35;33.75;;;;;;;;;;5069568;28;20234;-64
2023/05/08 12:34:27;;;;;;;40.53;36.38;;;;;;;;;;5080494;28;20205;-64
2023/05/08 12:37:00;;;;;;;43.15;38.85;;;;;;;;;;5088719;28;20315;-64
2023/05/08 12:39:25;;;;;;;42.53;38.28;;;;;;;;;;5089313;28;20222;-63
2023/05/08 12:41:51;;;;;;;42.28;37.90;;;;;;;;;;5089319;28;20297;-63
2023/05/08 12:44:21;;;;;;;44.70;40.38;;;;;;;;;;5089869;28;20209;-63
2023/05/08 12:46:49;;;;;;;41.55;37.25;;;;;;;;;;5089515;28;20209;-64
2023/05/08 12:49:21;;;;;;;41.53;37.45;;;;;;;;;;5089636;28;20270;-63
2023/05/08 12:51:47;;;;;;;40.35;36.40;;;;;;;;;;5090017;28;20263;-63
2023/05/08 12:54:13;;;;;;;45.03;40.40;;;;;;;;;;5089075;28;20206;-63
2023/05/08 12:56:42;;;;;;;41.63;37.60;;;;;;;;;;5088830;28;20639;-65
2023/05/08 12:59:08;;;;;;;38.65;35.00;;;;;;;;;;5089666;28;20259;-64
2023/05/08 13:01:33;;;;;;;38.97;34.97;;;;;;;;;;5092898;28;20225;-64
2023/05/08 13:04:00;;;;;;;40.08;36.20;;;;;;;;;;5094036;28;20717;-64
2023/05/08 13:06:25;;;;;;;44.92;40.45;;;;;;;;;;5081156;28;20214;-63
2023/05/08 13:08:51;;;;;;;45.65;41.17;;;;;;;;;;5072961;28;20583;-64
2023/05/08 13:11:26;;;;;;;45.67;41.17;;;;;;;;;;5093146;28;20217;-64
2023/05/08 13:13:51;;;;;;;44.55;40.25;;;;;;;;;;5092535;28;20612;-64
2023/05/08 13:16:17;;;;;;;47.38;42.72;;;;;;;;;;5087378;28;20207;-64
2023/05/08 13:18:42;;;;;;;41.65;37.60;;;;;;;;;;5073423;28;20360;-64
2023/05/08 13:21:07;;;;;;;45.28;40.72;;;;;;;;;;5072376;28;20217;-64
2023/05/08 13:23:32;;;;;;;42.80;38.60;;;;;;;;;;5073093;28;20228;-64
2023/05/08 13:25:58;;;;;;;45.35;40.95;;;;;;;;;;5073621;28;20577;-63
2023/05/08 13:28:23;;;;;;;44.15;39.75;;;;;;;;;;5072667;28;20207;-64
2023/05/08 13:30:48;;;;;;;44.15;39.55;;;;;;;;;;5072759;28;20219;-64
2023/05/08 13:33:14;;;;;;;44.95;40.42;;;;;;;;;;5071517;28;20217;-64
2023/05/08 13:35:39;;;;;;;41.20;37.25;;;;;;;;;;5072677;28;20206;-64
2023/05/08 13:38:04;;;;;;;43.58;39.03;;;;;;;;;;5072032;28;20223;-64
2023/05/08 13:40:30;;;;;;;42.28;38.08;;;;;;;;;;5073097;28;20644;-63
2023/05/08 13:42:55;;;;;;;41.55;37.45;;;;;;;;;;5072376;28;20230;-64
2023/05/08 13:45:20;;;;;;;45.22;40.65;;;;;;;;;;5072809;28;20712;-64
2023/05/08 13:47:46;;;;;;;44.50;40.00;;;;;;;;;;5072979;28;20228;-64
2023/05/08 13:50:12;;;;;;;44.42;39.97;;;;;;;;;;5071469;28;20260;-64
2023/05/08 13:52:37;;;;;;;43.63;39.40;;;;;;;;;;5073079;28;20476;-64
2023/05/08 13:55:10;;;;;;;45.35;40.95;;;;;;;;;;5072486;28;20238;-63
2023/05/08 13:57:35;;;;;;;43.10;39.03;;;;;;;;;;5079975;28;20279;-66
2023/05/08 14:00:01;;;;;;;45.60;40.95;;;;;;;;;;5064787;28;20230;-64
2023/05/08 14:02:26;;;;;;;42.22;38.22;;;;;;;;;;5066225;28;20216;-65
2023/05/08 14:04:52;;;;;;;42.63;38.22;;;;;;;;;;5079808;28;20914;-65
2023/05/08 14:07:17;;;;;;;43.47;39.08;;;;;;;;;;5071207;28;20222;-66
2023/05/08 14:09:43;;;;;;;43.13;38.78;;;;;;;;;;5067522;28;20260;-64
2023/05/08 14:12:08;;;;;;;44.03;39.65;;;;;;;;;;5064433;28;20930;-64